createdAt,value
2018-06-20T00:00:10.753Z,20.88
2018-06-20T00:00:41.929Z,20.84
2018-06-20T00:01:13.097Z,20.80
2018-06-20T00:01:44.291Z,20.79
2018-06-20T00:02:15.470Z,20.75
2018-06-20T00:02:46.692Z,20.71
2018-06-20T00:03:17.893Z,20.70
2018-06-20T00:03:49.118Z,20.68
2018-06-20T00:04:20.357Z,20.69
2018-06-20T00:04:51.535Z,20.67
2018-06-20T00:05:22.767Z,20.67
2018-06-20T00:05:53.997Z,20.67
2018-06-20T00:06:25.191Z,20.65
2018-06-20T00:06:56.424Z,20.64
2018-06-20T00:07:27.715Z,20.64
2018-06-20T00:07:58.948Z,20.63
2018-06-20T00:08:30.126Z,20.64
2018-06-20T00:09:01.354Z,20.65
2018-06-20T00:09:32.551Z,20.68
2018-06-20T00:10:03.776Z,20.66
2018-06-20T00:10:35.020Z,20.70
2018-06-20T00:11:06.207Z,20.70
2018-06-20T00:11:37.384Z,20.68
2018-06-20T00:12:08.567Z,20.68
2018-06-20T00:12:39.744Z,20.65
2018-06-20T00:13:10.968Z,20.63
2018-06-20T00:13:42.205Z,20.60
2018-06-20T00:14:13.443Z,20.54
2018-06-20T00:14:44.641Z,20.52
2018-06-20T00:15:15.905Z,20.50
2018-06-20T00:15:47.092Z,20.48
2018-06-20T00:16:18.270Z,20.47
2018-06-20T00:16:49.497Z,20.45
2018-06-20T00:17:20.730Z,20.43
2018-06-20T00:17:51.915Z,20.39
2018-06-20T00:18:23.148Z,20.37
2018-06-20T00:18:54.332Z,20.36
2018-06-20T00:19:25.508Z,20.36
2018-06-20T00:19:56.740Z,20.34
2018-06-20T00:20:27.964Z,20.31
2018-06-20T00:20:59.144Z,20.31
2018-06-20T00:21:30.368Z,20.29
2018-06-20T00:22:01.559Z,20.29
2018-06-20T00:22:32.793Z,20.26
2018-06-20T00:23:03.980Z,20.21
2018-06-20T00:23:35.207Z,20.22
2018-06-20T00:24:06.385Z,20.20
2018-06-20T00:24:37.551Z,20.21
2018-06-20T00:25:08.785Z,20.22
2018-06-20T00:25:40.011Z,20.25
2018-06-20T00:26:11.254Z,20.25
2018-06-20T00:26:42.432Z,20.25
2018-06-20T00:27:13.613Z,20.25
2018-06-20T00:27:44.790Z,20.25
2018-06-20T00:28:16.078Z,20.26
2018-06-20T00:28:47.268Z,20.28
2018-06-20T00:29:18.451Z,20.27
2018-06-20T00:29:49.691Z,20.27
2018-06-20T00:30:20.880Z,20.26
2018-06-20T00:30:52.054Z,20.27
2018-06-20T00:31:23.285Z,20.28
2018-06-20T00:31:54.479Z,20.26
2018-06-20T00:32:25.652Z,20.24
2018-06-20T00:32:56.833Z,20.20
2018-06-20T00:33:28.054Z,20.15
2018-06-20T00:33:59.237Z,20.13
2018-06-20T00:34:30.425Z,20.11
2018-06-20T00:35:01.615Z,20.11
2018-06-20T00:35:32.801Z,20.11
2018-06-20T00:36:04.036Z,20.11
2018-06-20T00:36:35.285Z,20.10
2018-06-20T00:37:06.474Z,20.09
2018-06-20T00:37:37.648Z,20.07
2018-06-20T00:38:08.825Z,20.08
2018-06-20T00:38:40.032Z,20.07
2018-06-20T00:39:11.637Z,20.06
2018-06-20T00:39:42.825Z,20.05
2018-06-20T00:40:14.006Z,20.06
2018-06-20T00:40:45.218Z,20.06
2018-06-20T00:41:16.396Z,20.07
2018-06-20T00:41:47.621Z,20.08
2018-06-20T00:42:18.857Z,20.07
2018-06-20T00:42:50.043Z,20.06
2018-06-20T00:43:21.220Z,20.07
2018-06-20T00:43:52.449Z,20.10
2018-06-20T00:44:23.637Z,20.12
2018-06-20T00:44:54.864Z,20.14
2018-06-20T00:45:26.044Z,20.18
2018-06-20T00:45:57.220Z,20.21
2018-06-20T00:46:28.480Z,20.22
2018-06-20T00:46:59.740Z,20.24
2018-06-20T00:47:30.977Z,20.26
2018-06-20T00:48:02.154Z,20.24
2018-06-20T00:48:33.346Z,20.26
2018-06-20T00:49:04.527Z,20.28
2018-06-20T00:49:35.735Z,20.31
2018-06-20T00:50:06.921Z,20.33
2018-06-20T00:50:38.169Z,20.35
2018-06-20T00:51:09.352Z,20.31
2018-06-20T00:51:40.528Z,20.28
2018-06-20T00:52:11.704Z,20.25
2018-06-20T00:52:42.880Z,20.21
2018-06-20T00:53:14.072Z,20.16
2018-06-20T00:53:45.244Z,20.13
2018-06-20T00:54:16.490Z,20.11
2018-06-20T00:54:47.672Z,20.09
2018-06-20T00:55:18.893Z,20.09
2018-06-20T00:55:50.076Z,20.07
2018-06-20T00:56:21.256Z,20.05
2018-06-20T00:56:52.491Z,20.08
2018-06-20T00:57:23.725Z,20.08
2018-06-20T00:57:54.909Z,20.08
2018-06-20T00:58:26.087Z,20.07
2018-06-20T00:58:57.267Z,20.08
2018-06-20T00:59:28.443Z,20.09
2018-06-20T00:59:59.635Z,20.07
2018-06-20T01:00:30.845Z,20.08
2018-06-20T01:01:02.027Z,20.08
2018-06-20T01:01:33.265Z,20.06
2018-06-20T01:02:04.452Z,20.08
2018-06-20T01:02:35.644Z,20.07
2018-06-20T01:03:06.873Z,20.11
2018-06-20T01:03:38.056Z,20.12
2018-06-20T01:04:09.231Z,20.14
2018-06-20T01:04:40.456Z,20.14
2018-06-20T01:05:11.630Z,20.16
2018-06-20T01:05:42.874Z,20.16
2018-06-20T01:06:14.074Z,20.17
2018-06-20T01:06:45.248Z,20.18
2018-06-20T01:07:16.415Z,20.21
2018-06-20T01:07:47.608Z,20.26
2018-06-20T01:08:18.784Z,20.27
2018-06-20T01:08:50.045Z,20.27
2018-06-20T01:09:21.228Z,20.29
2018-06-20T01:09:52.413Z,20.30
2018-06-20T01:10:23.599Z,20.31
2018-06-20T01:10:54.791Z,20.29
2018-06-20T01:11:25.968Z,20.30
2018-06-20T01:11:57.247Z,20.27
2018-06-20T01:12:28.357Z,20.25
2018-06-20T01:12:59.589Z,20.22
2018-06-20T01:13:30.809Z,20.21
2018-06-20T01:14:02.024Z,20.18
2018-06-20T01:14:33.202Z,20.15
2018-06-20T01:15:04.391Z,20.13
2018-06-20T01:15:35.572Z,20.10
2018-06-20T01:16:06.804Z,20.08
2018-06-20T01:16:37.996Z,20.03
2018-06-20T01:17:09.173Z,20.01
2018-06-20T01:17:40.349Z,19.99
2018-06-20T01:18:11.523Z,19.99
2018-06-20T01:18:42.716Z,19.98
2018-06-20T01:19:13.920Z,19.98
2018-06-20T01:19:45.085Z,19.99
2018-06-20T01:20:16.269Z,19.97
2018-06-20T01:20:47.450Z,19.96
2018-06-20T01:21:18.635Z,19.96
2018-06-20T01:21:49.812Z,19.95
2018-06-20T01:22:21.040Z,19.96
2018-06-20T01:22:52.220Z,19.92
2018-06-20T01:23:23.445Z,19.93
2018-06-20T01:23:54.628Z,19.94
2018-06-20T01:24:25.884Z,19.95
2018-06-20T01:24:57.097Z,19.96
2018-06-20T01:25:28.280Z,19.95
2018-06-20T01:25:59.454Z,19.94
2018-06-20T01:26:30.629Z,19.90
2018-06-20T01:27:01.870Z,19.89
2018-06-20T01:27:33.101Z,19.87
2018-06-20T01:28:04.337Z,19.81
2018-06-20T01:28:35.576Z,19.79
2018-06-20T01:29:06.818Z,19.77
2018-06-20T01:29:38.027Z,19.75
2018-06-20T01:30:09.249Z,19.71
2018-06-20T01:30:40.476Z,19.69
2018-06-20T01:31:11.665Z,19.67
2018-06-20T01:31:42.845Z,19.67
2018-06-20T01:32:14.026Z,19.66
2018-06-20T01:32:45.257Z,19.66
2018-06-20T01:33:16.441Z,19.65
2018-06-20T01:33:47.620Z,19.66
2018-06-20T01:34:18.861Z,19.64
2018-06-20T01:34:50.094Z,19.64
2018-06-20T01:35:21.269Z,19.64
2018-06-20T01:35:52.445Z,19.62
2018-06-20T01:36:23.681Z,19.63
2018-06-20T01:36:54.861Z,19.63
2018-06-20T01:37:26.037Z,19.61
2018-06-20T01:37:57.247Z,19.63
2018-06-20T01:38:28.469Z,19.66
2018-06-20T01:38:59.652Z,19.69
2018-06-20T01:39:30.941Z,19.69
2018-06-20T01:40:02.124Z,19.70
2018-06-20T01:40:33.300Z,19.68
2018-06-20T01:41:04.557Z,19.67
2018-06-20T01:41:35.749Z,19.67
2018-06-20T01:42:06.923Z,19.67
2018-06-20T01:42:38.096Z,19.64
2018-06-20T01:43:09.318Z,19.65
2018-06-20T01:43:40.492Z,19.65
2018-06-20T01:44:11.722Z,18.28
2018-06-20T01:44:42.942Z,19.62
2018-06-20T01:45:14.146Z,19.60
2018-06-20T01:45:45.328Z,19.55
2018-06-20T01:46:16.504Z,19.54
2018-06-20T01:46:47.683Z,19.54
2018-06-20T01:47:18.868Z,19.52
2018-06-20T01:47:50.098Z,19.50
2018-06-20T01:48:21.292Z,19.48
2018-06-20T01:48:52.506Z,19.46
2018-06-20T01:49:23.673Z,19.45
2018-06-20T01:49:54.853Z,19.44
2018-06-20T01:50:26.077Z,19.42
2018-06-20T01:50:57.312Z,19.42
2018-06-20T01:51:28.532Z,19.42
2018-06-20T01:51:59.704Z,19.44
2018-06-20T01:52:30.928Z,19.46
2018-06-20T01:53:02.169Z,19.46
2018-06-20T01:53:33.404Z,19.46
2018-06-20T01:54:04.641Z,19.45
2018-06-20T01:54:35.875Z,19.47
2018-06-20T01:55:07.095Z,19.47
2018-06-20T01:55:38.277Z,19.48
2018-06-20T01:56:09.512Z,19.49
2018-06-20T01:56:40.692Z,19.51
2018-06-20T01:57:11.878Z,19.47
2018-06-20T01:57:43.049Z,19.50
2018-06-20T01:58:14.221Z,19.52
2018-06-20T01:58:45.403Z,19.55
2018-06-20T01:59:16.576Z,19.58
2018-06-20T01:59:47.760Z,19.60
2018-06-20T02:00:18.970Z,19.60
2018-06-20T02:00:50.149Z,19.60
2018-06-20T02:01:21.377Z,19.57
2018-06-20T02:01:52.572Z,19.55
2018-06-20T02:02:23.792Z,19.51
2018-06-20T02:02:55.029Z,18.54
2018-06-20T02:03:26.211Z,19.44
2018-06-20T02:03:57.384Z,19.42
2018-06-20T02:04:28.613Z,19.41
2018-06-20T02:04:59.851Z,19.39
2018-06-20T02:05:31.077Z,19.37
2018-06-20T02:06:02.264Z,19.37
2018-06-20T02:06:33.490Z,19.36
2018-06-20T02:07:04.676Z,19.36
2018-06-20T02:07:35.931Z,19.36
2018-06-20T02:08:07.116Z,19.34
2018-06-20T02:08:38.302Z,19.33
2018-06-20T02:09:09.481Z,19.34
2018-06-20T02:09:40.648Z,19.36
2018-06-20T02:10:11.877Z,19.38
2018-06-20T02:10:43.057Z,19.37
2018-06-20T02:11:14.280Z,19.37
2018-06-20T02:11:45.549Z,19.39
2018-06-20T02:12:16.781Z,19.40
2018-06-20T02:12:47.964Z,19.43
2018-06-20T02:13:19.239Z,19.44
2018-06-20T02:13:50.420Z,19.44
2018-06-20T02:14:21.654Z,19.45
2018-06-20T02:14:52.840Z,19.45
2018-06-20T02:15:24.075Z,19.45
2018-06-20T02:15:55.296Z,19.45
2018-06-20T02:16:26.512Z,19.45
2018-06-20T02:16:57.752Z,19.49
2018-06-20T02:17:28.982Z,19.50
2018-06-20T02:18:00.172Z,19.51
2018-06-20T02:18:31.363Z,19.50
2018-06-20T02:19:02.541Z,19.46
2018-06-20T02:19:33.726Z,19.44
2018-06-20T02:20:04.903Z,19.42
2018-06-20T02:20:36.139Z,19.38
2018-06-20T02:21:07.400Z,19.36
2018-06-20T02:21:38.593Z,19.33
2018-06-20T02:22:09.820Z,19.27
2018-06-20T02:22:41.013Z,19.27
2018-06-20T02:23:12.187Z,19.23
2018-06-20T02:23:43.355Z,19.19
2018-06-20T02:24:14.578Z,19.17
2018-06-20T02:24:45.766Z,19.17
2018-06-20T02:25:16.976Z,19.15
2018-06-20T02:25:48.147Z,19.11
2018-06-20T02:26:19.381Z,19.11
2018-06-20T02:26:50.574Z,19.08
2018-06-20T02:27:21.738Z,19.06
2018-06-20T02:27:52.960Z,19.02
2018-06-20T02:28:24.140Z,19.01
2018-06-20T02:28:55.317Z,19.00
2018-06-20T02:29:26.541Z,19.00
2018-06-20T02:29:57.729Z,19.02
2018-06-20T02:30:28.937Z,19.00
2018-06-20T02:31:00.163Z,19.02
2018-06-20T02:31:31.384Z,19.03
2018-06-20T02:32:02.553Z,19.05
2018-06-20T02:32:33.769Z,19.08
2018-06-20T02:33:05.001Z,19.09
2018-06-20T02:33:36.188Z,19.11
2018-06-20T02:34:07.373Z,19.13
2018-06-20T02:34:38.598Z,19.14
2018-06-20T02:35:09.812Z,19.15
2018-06-20T02:35:40.985Z,19.17
2018-06-20T02:36:12.217Z,19.18
2018-06-20T02:36:43.461Z,19.17
2018-06-20T02:37:14.657Z,19.17
2018-06-20T02:37:45.894Z,19.15
2018-06-20T02:38:17.080Z,19.15
2018-06-20T02:38:48.361Z,19.15
2018-06-20T02:39:19.593Z,19.14
2018-06-20T02:39:50.830Z,19.14
2018-06-20T02:40:22.051Z,19.14
2018-06-20T02:40:53.265Z,19.15
2018-06-20T02:41:24.497Z,19.15
2018-06-20T02:41:55.684Z,19.16
2018-06-20T02:42:26.905Z,19.17
2018-06-20T02:42:58.081Z,19.17
2018-06-20T02:43:29.257Z,19.15
2018-06-20T02:44:01.198Z,19.14
2018-06-20T02:44:32.434Z,19.15
2018-06-20T02:45:03.629Z,19.18
2018-06-20T02:45:34.797Z,19.19
2018-06-20T02:46:06.335Z,19.21
2018-06-20T02:46:37.557Z,19.23
2018-06-20T02:47:08.755Z,19.24
2018-06-20T02:47:39.928Z,19.26
2018-06-20T02:48:11.153Z,19.28
2018-06-20T02:48:42.349Z,19.33
2018-06-20T02:49:13.573Z,19.37
2018-06-20T02:49:44.754Z,19.42
2018-06-20T02:50:15.990Z,19.47
2018-06-20T02:50:47.222Z,19.52
2018-06-20T02:51:18.413Z,19.55
2018-06-20T02:51:49.590Z,19.54
2018-06-20T02:52:20.771Z,19.55
2018-06-20T02:52:52.105Z,19.54
2018-06-20T02:53:23.227Z,19.52
2018-06-20T02:53:54.405Z,19.52
2018-06-20T02:54:25.669Z,19.49
2018-06-20T02:54:56.853Z,19.48
2018-06-20T02:55:28.045Z,19.45
2018-06-20T02:55:59.225Z,19.44
2018-06-20T02:56:30.452Z,19.42
2018-06-20T02:57:01.637Z,19.40
2018-06-20T02:57:32.869Z,19.42
2018-06-20T02:58:04.093Z,19.41
2018-06-20T02:58:35.272Z,19.40
2018-06-20T02:59:06.440Z,19.44
2018-06-20T02:59:37.665Z,19.41
2018-06-20T03:00:08.909Z,19.41
2018-06-20T03:00:40.142Z,19.39
2018-06-20T03:01:11.376Z,19.40
2018-06-20T03:01:42.580Z,19.42
2018-06-20T03:02:13.761Z,19.45
2018-06-20T03:02:44.944Z,19.44
2018-06-20T03:03:16.160Z,19.48
2018-06-20T03:03:47.388Z,19.52
2018-06-20T03:04:18.572Z,19.58
2018-06-20T03:04:49.751Z,19.65
2018-06-20T03:05:20.945Z,19.72
2018-06-20T03:05:52.168Z,19.80
2018-06-20T03:06:23.344Z,19.86
2018-06-20T03:06:54.516Z,19.92
2018-06-20T03:07:25.700Z,19.99
2018-06-20T03:07:56.881Z,20.04
2018-06-20T03:08:28.060Z,20.09
2018-06-20T03:08:59.348Z,20.13
2018-06-20T03:09:30.536Z,20.18
2018-06-20T03:10:01.705Z,20.22
2018-06-20T03:10:32.945Z,20.24
2018-06-20T03:11:04.177Z,20.24
2018-06-20T03:11:35.357Z,20.32
2018-06-20T03:12:06.597Z,20.39
2018-06-20T03:12:37.792Z,20.48
2018-06-20T03:13:08.973Z,20.54
2018-06-20T03:13:40.169Z,20.55
2018-06-20T03:14:11.389Z,20.56
2018-06-20T03:14:42.574Z,20.61
2018-06-20T03:15:13.757Z,20.66
2018-06-20T03:15:44.937Z,20.66
2018-06-20T03:16:16.154Z,20.68
2018-06-20T03:16:47.338Z,20.76
2018-06-20T03:17:18.512Z,20.82
2018-06-20T03:17:49.684Z,20.81
2018-06-20T03:18:20.864Z,20.87
2018-06-20T03:18:52.044Z,20.88
2018-06-20T03:19:23.253Z,20.89
2018-06-20T03:19:54.507Z,20.91
2018-06-20T03:20:25.705Z,20.99
2018-06-20T03:20:56.937Z,21.04
2018-06-20T03:21:28.244Z,21.09
2018-06-20T03:21:59.484Z,21.11
2018-06-20T03:22:30.657Z,21.19
2018-06-20T03:23:01.892Z,21.25
2018-06-20T03:23:33.090Z,21.28
2018-06-20T03:24:04.268Z,21.35
2018-06-20T03:24:35.454Z,21.36
2018-06-20T03:25:06.672Z,21.40
2018-06-20T03:25:37.898Z,21.47
2018-06-20T03:26:09.080Z,21.58
2018-06-20T03:26:40.314Z,21.70
2018-06-20T03:27:11.511Z,21.81
2018-06-20T03:27:42.719Z,21.84
2018-06-20T03:28:13.890Z,21.92
2018-06-20T03:28:45.072Z,22.02
2018-06-20T03:29:16.244Z,22.07
2018-06-20T03:29:47.424Z,22.09
2018-06-20T03:30:18.644Z,22.12
2018-06-20T03:30:49.870Z,22.13
2018-06-20T03:31:21.107Z,22.17
2018-06-20T03:31:52.303Z,22.25
2018-06-20T03:32:23.545Z,22.37
2018-06-20T03:32:54.774Z,22.41
2018-06-20T03:33:25.954Z,22.40
2018-06-20T03:33:57.131Z,22.44
2018-06-20T03:34:28.296Z,22.51
2018-06-20T03:34:59.475Z,22.59
2018-06-20T03:35:30.720Z,22.68
2018-06-20T03:36:01.899Z,22.79
2018-06-20T03:36:33.077Z,22.85
2018-06-20T03:37:04.240Z,22.89
2018-06-20T03:37:35.424Z,22.95
2018-06-20T03:38:06.628Z,23.01
2018-06-20T03:38:37.788Z,23.10
2018-06-20T03:39:08.992Z,23.17
2018-06-20T03:39:40.152Z,23.23
2018-06-20T03:40:11.322Z,23.21
2018-06-20T03:40:42.540Z,23.23
2018-06-20T03:41:13.721Z,23.35
2018-06-20T03:41:44.889Z,23.47
2018-06-20T03:42:16.100Z,23.68
2018-06-20T03:42:47.280Z,23.89
2018-06-20T03:43:18.480Z,24.06
2018-06-20T03:43:49.695Z,24.08
2018-06-20T03:44:20.872Z,23.96
2018-06-20T03:44:52.092Z,23.97
2018-06-20T03:45:23.273Z,24.07
2018-06-20T03:45:54.495Z,24.07
2018-06-20T03:46:25.681Z,24.12
2018-06-20T03:46:56.897Z,24.20
2018-06-20T03:47:28.133Z,24.16
2018-06-20T03:47:59.357Z,24.23
2018-06-20T03:48:30.638Z,24.32
2018-06-20T03:49:01.827Z,24.43
2018-06-20T03:49:32.991Z,24.46
2018-06-20T03:50:04.164Z,24.51
2018-06-20T03:50:35.346Z,24.57
2018-06-20T03:51:06.529Z,24.63
2018-06-20T03:51:37.754Z,24.69
2018-06-20T03:52:08.932Z,24.66
2018-06-20T03:52:40.121Z,24.69
2018-06-20T03:53:11.352Z,24.67
2018-06-20T03:53:42.566Z,24.60
2018-06-20T03:54:13.751Z,24.48
2018-06-20T03:54:44.973Z,24.30
2018-06-20T03:55:16.160Z,24.07
2018-06-20T03:55:47.333Z,23.84
2018-06-20T03:56:18.507Z,23.61
2018-06-20T03:56:49.796Z,23.46
2018-06-20T03:57:20.976Z,23.41
2018-06-20T03:57:52.217Z,23.41
2018-06-20T03:58:23.489Z,23.46
2018-06-20T03:58:54.669Z,23.53
2018-06-20T03:59:25.850Z,23.65
2018-06-20T03:59:57.025Z,23.81
2018-06-20T04:00:28.194Z,24.05
2018-06-20T04:00:59.360Z,24.31
2018-06-20T04:01:30.583Z,24.59
2018-06-20T04:02:01.786Z,24.84
2018-06-20T04:02:33.017Z,25.11
2018-06-20T04:03:04.205Z,25.31
2018-06-20T04:03:35.420Z,25.39
2018-06-20T04:04:06.589Z,25.32
2018-06-20T04:04:37.756Z,25.21
2018-06-20T04:05:08.983Z,25.09
2018-06-20T04:05:40.173Z,24.97
2018-06-20T04:06:11.348Z,24.84
2018-06-20T04:06:42.520Z,24.66
2018-06-20T04:07:13.684Z,24.54
2018-06-20T04:07:44.866Z,24.48
2018-06-20T04:08:16.045Z,24.45
2018-06-20T04:08:47.262Z,24.48
2018-06-20T04:09:18.436Z,24.49
2018-06-20T04:09:49.649Z,24.62
2018-06-20T04:10:20.835Z,24.82
2018-06-20T04:10:52.004Z,25.04
2018-06-20T04:11:23.180Z,25.22
2018-06-20T04:11:54.424Z,25.33
2018-06-20T04:12:25.641Z,25.44
2018-06-20T04:12:56.819Z,25.52
2018-06-20T04:13:28.000Z,25.46
2018-06-20T04:13:59.173Z,25.39
2018-06-20T04:14:30.341Z,25.30
2018-06-20T04:15:01.561Z,25.18
2018-06-20T04:15:32.741Z,25.04
2018-06-20T04:16:03.970Z,24.92
2018-06-20T04:16:35.215Z,24.81
2018-06-20T04:17:06.415Z,24.70
2018-06-20T04:17:37.615Z,24.70
2018-06-20T04:18:08.789Z,24.80
2018-06-20T04:18:40.018Z,25.01
2018-06-20T04:19:11.230Z,25.16
2018-06-20T04:19:42.400Z,25.32
2018-06-20T04:20:13.565Z,25.35
2018-06-20T04:20:44.742Z,25.27
2018-06-20T04:21:15.920Z,25.17
2018-06-20T04:21:47.093Z,25.05
2018-06-20T04:22:18.353Z,24.96
2018-06-20T04:22:49.589Z,24.91
2018-06-20T04:23:20.768Z,24.85
2018-06-20T04:23:51.993Z,24.86
2018-06-20T04:24:23.224Z,24.91
2018-06-20T04:24:54.412Z,25.03
2018-06-20T04:25:25.637Z,25.17
2018-06-20T04:25:56.875Z,25.34
2018-06-20T04:26:28.060Z,25.63
2018-06-20T04:26:59.240Z,25.92
2018-06-20T04:27:30.466Z,26.23
2018-06-20T04:28:01.747Z,26.39
2018-06-20T04:28:32.981Z,26.57
2018-06-20T04:29:04.174Z,26.63
2018-06-20T04:29:35.341Z,26.44
2018-06-20T04:30:06.520Z,26.42
2018-06-20T04:30:37.696Z,26.36
2018-06-20T04:31:08.874Z,26.27
2018-06-20T04:31:40.076Z,26.15
2018-06-20T04:32:11.608Z,26.07
2018-06-20T04:32:42.825Z,23.94
2018-06-20T04:33:14.010Z,25.99
2018-06-20T04:33:45.198Z,26.08
2018-06-20T04:34:16.385Z,26.29
2018-06-20T04:34:47.629Z,26.50
2018-06-20T04:35:18.842Z,26.77
2018-06-20T04:35:50.024Z,26.92
2018-06-20T04:36:21.197Z,27.07
2018-06-20T04:36:52.382Z,27.25
2018-06-20T04:37:23.568Z,27.41
2018-06-20T04:37:54.815Z,27.41
2018-06-20T04:38:26.034Z,27.25
2018-06-20T04:38:57.230Z,27.15
2018-06-20T04:39:28.460Z,26.96
2018-06-20T04:39:59.694Z,26.79
2018-06-20T04:40:30.933Z,26.58
2018-06-20T04:41:02.117Z,26.42
2018-06-20T04:41:33.300Z,26.13
2018-06-20T04:42:04.530Z,26.05
2018-06-20T04:42:35.712Z,26.07
2018-06-20T04:43:06.937Z,26.13
2018-06-20T04:43:38.161Z,26.32
2018-06-20T04:44:09.344Z,26.55
2018-06-20T04:44:40.630Z,26.81
2018-06-20T04:45:11.773Z,26.90
2018-06-20T04:45:42.985Z,27.13
2018-06-20T04:46:14.214Z,27.41
2018-06-20T04:46:45.452Z,27.53
2018-06-20T04:47:16.623Z,27.82
2018-06-20T04:47:47.855Z,27.92
2018-06-20T04:48:19.047Z,27.95
2018-06-20T04:48:50.229Z,28.00
2018-06-20T04:49:21.407Z,28.05
2018-06-20T04:49:52.588Z,28.14
2018-06-20T04:50:23.763Z,28.00
2018-06-20T04:50:54.958Z,27.83
2018-06-20T04:51:26.144Z,27.69
2018-06-20T04:51:57.413Z,27.24
2018-06-20T04:52:28.632Z,26.91
2018-06-20T04:52:59.833Z,26.67
2018-06-20T04:53:31.017Z,26.43
2018-06-20T04:54:02.193Z,26.31
2018-06-20T04:54:33.412Z,26.24
2018-06-20T04:55:04.634Z,26.20
2018-06-20T04:55:35.840Z,26.18
2018-06-20T04:56:07.086Z,26.29
2018-06-20T04:56:38.295Z,26.35
2018-06-20T04:57:09.534Z,26.47
2018-06-20T04:57:40.756Z,26.60
2018-06-20T04:58:11.937Z,26.90
2018-06-20T04:58:43.124Z,27.21
2018-06-20T04:59:14.345Z,27.50
2018-06-20T04:59:45.525Z,27.67
2018-06-20T05:00:16.748Z,27.76
2018-06-20T05:00:47.932Z,27.78
2018-06-20T05:01:19.100Z,27.69
2018-06-20T05:01:50.345Z,27.53
2018-06-20T05:02:21.541Z,27.40
2018-06-20T05:02:52.752Z,27.32
2018-06-20T05:03:23.932Z,27.26
2018-06-20T05:03:55.105Z,27.15
2018-06-20T05:04:26.304Z,27.09
2018-06-20T05:04:57.528Z,27.14
2018-06-20T05:05:28.700Z,27.30
2018-06-20T05:05:59.868Z,27.47
2018-06-20T05:06:31.045Z,27.78
2018-06-20T05:07:02.228Z,28.10
2018-06-20T05:07:33.405Z,28.51
2018-06-20T05:08:04.641Z,28.84
2018-06-20T05:08:35.873Z,29.16
2018-06-20T05:09:07.104Z,29.31
2018-06-20T05:09:38.299Z,29.43
2018-06-20T05:10:09.505Z,29.60
2018-06-20T05:10:40.734Z,29.68
2018-06-20T05:11:11.955Z,29.74
2018-06-20T05:11:43.125Z,29.70
2018-06-20T05:12:14.304Z,30.00
2018-06-20T05:12:45.480Z,30.30
2018-06-20T05:13:16.713Z,30.41
2018-06-20T05:13:47.897Z,30.47
2018-06-20T05:14:19.069Z,30.60
2018-06-20T05:14:50.313Z,30.69
2018-06-20T05:15:21.541Z,30.96
2018-06-20T05:15:52.708Z,30.99
2018-06-20T05:16:23.884Z,31.12
2018-06-20T05:16:55.108Z,31.29
2018-06-20T05:17:26.288Z,31.39
2018-06-20T05:17:57.465Z,31.46
2018-06-20T05:18:28.685Z,31.53
2018-06-20T05:18:59.874Z,31.59
2018-06-20T05:19:31.097Z,31.57
2018-06-20T05:20:02.276Z,31.55
2018-06-20T05:20:33.481Z,31.66
2018-06-20T05:21:04.735Z,31.83
2018-06-20T05:21:35.916Z,31.94
2018-06-20T05:22:07.086Z,32.06
2018-06-20T05:22:38.269Z,31.94
2018-06-20T05:23:09.517Z,32.08
2018-06-20T05:23:40.705Z,32.08
2018-06-20T05:24:11.926Z,31.85
2018-06-20T05:24:43.108Z,31.79
2018-06-20T05:25:14.292Z,31.73
2018-06-20T05:25:45.477Z,31.62
2018-06-20T05:26:16.732Z,31.62
2018-06-20T05:26:47.912Z,31.47
2018-06-20T05:27:19.168Z,31.43
2018-06-20T05:27:50.409Z,31.51
2018-06-20T05:28:21.600Z,31.70
2018-06-20T05:28:52.779Z,31.74
2018-06-20T05:29:23.948Z,31.86
2018-06-20T05:29:55.210Z,31.75
2018-06-20T05:30:26.451Z,31.68
2018-06-20T05:30:57.638Z,31.70
2018-06-20T05:31:28.820Z,31.81
2018-06-20T05:31:59.997Z,31.81
2018-06-20T05:32:31.169Z,31.82
2018-06-20T05:33:02.394Z,31.80
2018-06-20T05:33:33.572Z,31.78
2018-06-20T05:34:04.797Z,31.81
2018-06-20T05:34:36.045Z,32.00
2018-06-20T05:35:07.245Z,32.10
2018-06-20T05:35:38.424Z,32.07
2018-06-20T05:36:09.605Z,31.88
2018-06-20T05:36:40.783Z,31.67
2018-06-20T05:37:12.016Z,31.47
2018-06-20T05:37:43.262Z,31.46
2018-06-20T05:38:14.647Z,31.36
2018-06-20T05:38:45.834Z,31.40
2018-06-20T05:39:17.021Z,31.33
2018-06-20T05:39:48.209Z,31.27
2018-06-20T05:40:19.441Z,31.20
2018-06-20T05:40:50.682Z,31.22
2018-06-20T05:41:21.888Z,31.28
2018-06-20T05:41:53.121Z,31.38
2018-06-20T05:42:24.312Z,31.49
2018-06-20T05:42:55.489Z,31.58
2018-06-20T05:43:26.680Z,31.47
2018-06-20T05:43:57.857Z,31.58
2018-06-20T05:44:29.040Z,31.52
2018-06-20T05:45:00.205Z,31.49
2018-06-20T05:45:31.383Z,31.40
2018-06-20T05:46:02.617Z,31.38
2018-06-20T05:46:33.900Z,31.41
2018-06-20T05:47:05.160Z,31.36
2018-06-20T05:47:36.365Z,31.20
2018-06-20T05:48:07.620Z,31.26
2018-06-20T05:48:38.810Z,31.19
2018-06-20T05:49:09.977Z,31.14
2018-06-20T05:49:41.205Z,31.09
2018-06-20T05:50:12.457Z,31.06
2018-06-20T05:50:43.708Z,31.00
2018-06-20T05:51:14.948Z,30.99
2018-06-20T05:51:46.233Z,31.04
2018-06-20T05:52:17.430Z,30.98
2018-06-20T05:52:48.605Z,31.06
2018-06-20T05:53:19.865Z,30.98
2018-06-20T05:53:51.133Z,30.78
2018-06-20T05:54:22.350Z,30.68
2018-06-20T05:54:53.529Z,30.64
2018-06-20T05:55:24.700Z,30.65
2018-06-20T05:55:55.892Z,30.62
2018-06-20T05:56:27.114Z,30.54
2018-06-20T05:56:58.337Z,30.47
2018-06-20T05:57:29.517Z,30.45
2018-06-20T05:58:00.777Z,30.47
2018-06-20T05:58:31.997Z,30.58
2018-06-20T05:59:03.189Z,30.60
2018-06-20T05:59:34.377Z,30.51
2018-06-20T06:00:05.556Z,30.39
2018-06-20T06:00:36.734Z,30.33
2018-06-20T06:01:07.911Z,30.32
2018-06-20T06:01:39.148Z,30.33
2018-06-20T06:02:10.445Z,30.32
2018-06-20T06:02:41.641Z,30.16
2018-06-20T06:03:12.837Z,30.02
2018-06-20T06:03:44.016Z,29.86
2018-06-20T06:04:15.205Z,29.77
2018-06-20T06:04:46.390Z,29.63
2018-06-20T06:05:17.860Z,29.67
2018-06-20T06:05:49.082Z,29.72
2018-06-20T06:06:20.271Z,29.69
2018-06-20T06:06:51.513Z,29.72
2018-06-20T06:07:22.744Z,29.80
2018-06-20T06:07:53.925Z,29.89
2018-06-20T06:08:25.122Z,29.95
2018-06-20T06:08:56.701Z,29.95
2018-06-20T06:09:27.880Z,29.89
2018-06-20T06:09:59.076Z,29.81
2018-06-20T06:10:30.329Z,29.68
2018-06-20T06:11:01.544Z,29.52
2018-06-20T06:11:32.775Z,29.53
2018-06-20T06:12:04.041Z,29.44
2018-06-20T06:12:35.292Z,29.32
2018-06-20T06:13:06.536Z,29.31
2018-06-20T06:13:37.735Z,29.42
2018-06-20T06:14:08.936Z,29.42
2018-06-20T06:14:40.121Z,29.37
2018-06-20T06:15:11.389Z,29.33
2018-06-20T06:15:42.572Z,29.16
2018-06-20T06:16:13.761Z,28.96
2018-06-20T06:16:44.964Z,28.87
2018-06-20T06:17:16.161Z,28.85
2018-06-20T06:17:47.383Z,28.61
2018-06-20T06:18:18.609Z,28.86
2018-06-20T06:18:49.869Z,28.97
2018-06-20T06:19:21.123Z,29.09
2018-06-20T06:19:52.353Z,29.16
2018-06-20T06:20:23.591Z,29.17
2018-06-20T06:20:54.782Z,29.30
2018-06-20T06:21:25.979Z,29.28
2018-06-20T06:21:57.155Z,29.25
2018-06-20T06:22:28.340Z,29.23
2018-06-20T06:22:59.622Z,29.27
2018-06-20T06:23:30.864Z,29.28
2018-06-20T06:24:02.108Z,29.26
2018-06-20T06:24:33.304Z,29.33
2018-06-20T06:25:04.493Z,29.22
2018-06-20T06:25:35.668Z,29.04
2018-06-20T06:26:06.849Z,28.92
2018-06-20T06:26:38.914Z,28.97
2018-06-20T06:27:10.102Z,28.99
2018-06-20T06:27:41.329Z,28.99
2018-06-20T06:28:12.558Z,28.92
2018-06-20T06:28:43.784Z,28.88
2018-06-20T06:29:15.017Z,28.85
2018-06-20T06:29:46.201Z,28.90
2018-06-20T06:30:17.414Z,28.96
2018-06-20T06:30:48.598Z,29.05
2018-06-20T06:31:19.810Z,29.18
2018-06-20T06:31:51.042Z,29.38
2018-06-20T06:32:22.227Z,29.47
2018-06-20T06:32:53.461Z,29.50
2018-06-20T06:33:24.657Z,29.55
2018-06-20T06:33:55.870Z,29.65
2018-06-20T06:34:27.102Z,29.79
2018-06-20T06:34:58.341Z,29.76
2018-06-20T06:35:29.585Z,29.69
2018-06-20T06:36:00.782Z,29.69
2018-06-20T06:36:32.037Z,29.76
2018-06-20T06:37:03.242Z,29.77
2018-06-20T06:37:34.425Z,29.84
2018-06-20T06:38:05.654Z,29.85
2018-06-20T06:38:36.897Z,29.87
2018-06-20T06:39:08.144Z,29.92
2018-06-20T06:39:39.319Z,30.01
2018-06-20T06:40:10.494Z,30.12
2018-06-20T06:40:41.672Z,30.20
2018-06-20T06:41:13.569Z,30.29
2018-06-20T06:41:44.793Z,30.33